sensor_id;sensor_type;location;lat;lon;timestamp;P1;durP1;ratioP1;P2;durP2;ratioP2
61471;SDS011;47337;54.068;12.114;2023-03-23T00:01:15;4.75;;;3.10;;
61471;SDS011;47337;54.068;12.114;2023-03-23T00:03:45;4.07;;;3.30;;
61471;SDS011;47337;54.068;12.114;2023-03-23T00:06:12;6.32;;;4.05;;
61471;SDS011;47337;54.068;12.114;2023-03-23T00:08:42;6.55;;;3.72;;
61471;SDS011;47337;54.068;12.114;2023-03-23T00:11:16;4.18;;;3.17;;
61471;SDS011;47337;54.068;12.114;2023-03-23T00:13:47;4.50;;;2.72;;
61471;SDS011;47337;54.068;12.114;2023-03-23T00:16:20;6.03;;;3.13;;
61471;SDS011;47337;54.068;12.114;2023-03-23T00:18:56;4.10;;;2.88;;
61471;SDS011;47337;54.068;12.114;2023-03-23T00:21:29;8.38;;;3.22;;
61471;SDS011;47337;54.068;12.114;2023-03-23T00:24:03;9.15;;;3.42;;
61471;SDS011;47337;54.068;12.114;2023-03-23T00:26:37;5.22;;;3.22;;
61471;SDS011;47337;54.068;12.114;2023-03-23T00:29:11;5.10;;;3.00;;
61471;SDS011;47337;54.068;12.114;2023-03-23T00:31:40;4.35;;;2.83;;
61471;SDS011;47337;54.068;12.114;2023-03-23T00:34:06;5.47;;;2.88;;
61471;SDS011;47337;54.068;12.114;2023-03-23T00:36:37;7.57;;;3.05;;
61471;SDS011;47337;54.068;12.114;2023-03-23T00:39:07;4.80;;;2.83;;
61471;SDS011;47337;54.068;12.114;2023-03-23T00:41:33;5.65;;;3.15;;
61471;SDS011;47337;54.068;12.114;2023-03-23T00:44:01;5.97;;;2.65;;
61471;SDS011;47337;54.068;12.114;2023-03-23T00:46:28;4.00;;;2.50;;
61471;SDS011;47337;54.068;12.114;2023-03-23T00:48:54;5.32;;;2.95;;
61471;SDS011;47337;54.068;12.114;2023-03-23T00:51:21;3.78;;;2.65;;
61471;SDS011;47337;54.068;12.114;2023-03-23T00:53:48;5.00;;;2.78;;
61471;SDS011;47337;54.068;12.114;2023-03-23T00:56:13;7.25;;;2.50;;
61471;SDS011;47337;54.068;12.114;2023-03-23T00:58:39;4.38;;;2.08;;
61471;SDS011;47337;54.068;12.114;2023-03-23T01:01:05;2.75;;;2.15;;
61471;SDS011;47337;54.068;12.114;2023-03-23T01:03:30;5.63;;;2.20;;
61471;SDS011;47337;54.068;12.114;2023-03-23T01:05:56;5.28;;;2.75;;
61471;SDS011;47337;54.068;12.114;2023-03-23T01:08:22;3.80;;;2.47;;
61471;SDS011;47337;54.068;12.114;2023-03-23T01:10:49;4.60;;;2.53;;
61471;SDS011;47337;54.068;12.114;2023-03-23T01:13:15;4.78;;;2.45;;
61471;SDS011;47337;54.068;12.114;2023-03-23T01:15:41;4.47;;;2.75;;
61471;SDS011;47337;54.068;12.114;2023-03-23T01:18:07;4.55;;;2.28;;
61471;SDS011;47337;54.068;12.114;2023-03-23T01:20:35;5.30;;;3.20;;
61471;SDS011;47337;54.068;12.114;2023-03-23T01:23:01;6.15;;;2.83;;
61471;SDS011;47337;54.068;12.114;2023-03-23T01:25:29;7.63;;;2.45;;
61471;SDS011;47337;54.068;12.114;2023-03-23T01:28:00;4.80;;;2.80;;
61471;SDS011;47337;54.068;12.114;2023-03-23T01:30:25;5.15;;;2.85;;
61471;SDS011;47337;54.068;12.114;2023-03-23T01:32:54;6.57;;;3.20;;
61471;SDS011;47337;54.068;12.114;2023-03-23T01:35:20;3.90;;;2.85;;
61471;SDS011;47337;54.068;12.114;2023-03-23T01:37:46;5.45;;;2.90;;
61471;SDS011;47337;54.068;12.114;2023-03-23T01:40:14;4.68;;;3.25;;
61471;SDS011;47337;54.068;12.114;2023-03-23T01:42:41;5.97;;;3.08;;
61471;SDS011;47337;54.068;12.114;2023-03-23T01:47:44;7.82;;;3.60;;
61471;SDS011;47337;54.068;12.114;2023-03-23T01:50:16;6.30;;;3.70;;
61471;SDS011;47337;54.068;12.114;2023-03-23T01:52:42;4.85;;;3.22;;
61471;SDS011;47337;54.068;12.114;2023-03-23T01:55:07;7.68;;;3.28;;
61471;SDS011;47337;54.068;12.114;2023-03-23T01:57:33;6.00;;;3.47;;
61471;SDS011;47337;54.068;12.114;2023-03-23T02:00:00;5.18;;;3.25;;
61471;SDS011;47337;54.068;12.114;2023-03-23T02:02:39;7.20;;;3.55;;
61471;SDS011;47337;54.068;12.114;2023-03-23T02:05:14;5.38;;;3.47;;
61471;SDS011;47337;54.068;12.114;2023-03-23T02:07:46;4.68;;;3.17;;
61471;SDS011;47337;54.068;12.114;2023-03-23T02:10:15;6.47;;;3.08;;
61471;SDS011;47337;54.068;12.114;2023-03-23T02:12:40;7.00;;;3.55;;
61471;SDS011;47337;54.068;12.114;2023-03-23T02:15:06;4.68;;;3.03;;
61471;SDS011;47337;54.068;12.114;2023-03-23T02:17:39;5.53;;;2.75;;
61471;SDS011;47337;54.068;12.114;2023-03-23T02:25:59;8.80;;;2.95;;
61471;SDS011;47337;54.068;12.114;2023-03-23T02:36:50;6.20;;;3.75;;
61471;SDS011;47337;54.068;12.114;2023-03-23T02:44:23;6.13;;;3.97;;
61471;SDS011;47337;54.068;12.114;2023-03-23T02:46:55;7.57;;;4.28;;
61471;SDS011;47337;54.068;12.114;2023-03-23T02:49:22;6.97;;;4.05;;
61471;SDS011;47337;54.068;12.114;2023-03-23T02:51:52;6.13;;;4.00;;
61471;SDS011;47337;54.068;12.114;2023-03-23T02:54:21;8.45;;;4.38;;
61471;SDS011;47337;54.068;12.114;2023-03-23T02:56:51;9.07;;;4.78;;
61471;SDS011;47337;54.068;12.114;2023-03-23T02:59:22;6.63;;;4.30;;
61471;SDS011;47337;54.068;12.114;2023-03-23T03:01:48;7.95;;;4.80;;
61471;SDS011;47337;54.068;12.114;2023-03-23T03:04:20;9.65;;;5.05;;
61471;SDS011;47337;54.068;12.114;2023-03-23T03:17:48;8.13;;;4.43;;
61471;SDS011;47337;54.068;12.114;2023-03-23T03:20:20;8.02;;;4.50;;
61471;SDS011;47337;54.068;12.114;2023-03-23T03:22:47;8.02;;;4.97;;
61471;SDS011;47337;54.068;12.114;2023-03-23T03:25:17;7.97;;;5.38;;
61471;SDS011;47337;54.068;12.114;2023-03-23T03:27:45;10.35;;;5.20;;
61471;SDS011;47337;54.068;12.114;2023-03-23T03:30:17;12.10;;;5.30;;
61471;SDS011;47337;54.068;12.114;2023-03-23T03:32:49;8.60;;;4.70;;
61471;SDS011;47337;54.068;12.114;2023-03-23T03:35:18;10.13;;;5.47;;
61471;SDS011;47337;54.068;12.114;2023-03-23T03:37:46;9.10;;;5.25;;
61471;SDS011;47337;54.068;12.114;2023-03-23T03:40:14;10.32;;;5.20;;
61471;SDS011;47337;54.068;12.114;2023-03-23T03:45:12;8.15;;;4.70;;
61471;SDS011;47337;54.068;12.114;2023-03-23T03:47:42;11.15;;;5.30;;
61471;SDS011;47337;54.068;12.114;2023-03-23T03:50:08;10.55;;;5.43;;
61471;SDS011;47337;54.068;12.114;2023-03-23T03:52:36;7.80;;;5.57;;
61471;SDS011;47337;54.068;12.114;2023-03-23T03:55:03;6.75;;;4.63;;
61471;SDS011;47337;54.068;12.114;2023-03-23T03:57:29;10.13;;;5.35;;
61471;SDS011;47337;54.068;12.114;2023-03-23T03:59:55;11.27;;;5.95;;
61471;SDS011;47337;54.068;12.114;2023-03-23T04:02:23;9.73;;;5.97;;
61471;SDS011;47337;54.068;12.114;2023-03-23T04:04:49;12.98;;;6.25;;
61471;SDS011;47337;54.068;12.114;2023-03-23T04:07:16;14.57;;;5.97;;
61471;SDS011;47337;54.068;12.114;2023-03-23T04:09:45;10.40;;;6.45;;
61471;SDS011;47337;54.068;12.114;2023-03-23T04:12:13;10.50;;;5.43;;
61471;SDS011;47337;54.068;12.114;2023-03-23T04:14:41;11.02;;;6.18;;
61471;SDS011;47337;54.068;12.114;2023-03-23T04:17:06;8.98;;;5.93;;
61471;SDS011;47337;54.068;12.114;2023-03-23T04:19:34;9.73;;;6.20;;
61471;SDS011;47337;54.068;12.114;2023-03-23T04:22:04;11.85;;;6.35;;
61471;SDS011;47337;54.068;12.114;2023-03-23T04:24:30;9.82;;;5.50;;
61471;SDS011;47337;54.068;12.114;2023-03-23T04:26:58;9.65;;;6.05;;
61471;SDS011;47337;54.068;12.114;2023-03-23T04:29:26;10.25;;;6.15;;
61471;SDS011;47337;54.068;12.114;2023-03-23T04:31:52;10.65;;;5.97;;
61471;SDS011;47337;54.068;12.114;2023-03-23T04:34:18;12.77;;;6.57;;
61471;SDS011;47337;54.068;12.114;2023-03-23T04:36:46;11.13;;;7.03;;
61471;SDS011;47337;54.068;12.114;2023-03-23T04:39:12;13.05;;;6.07;;
61471;SDS011;47337;54.068;12.114;2023-03-23T04:41:38;11.00;;;5.95;;
61471;SDS011;47337;54.068;12.114;2023-03-23T04:44:05;10.35;;;5.80;;
61471;SDS011;47337;54.068;12.114;2023-03-23T04:46:34;8.27;;;6.10;;
61471;SDS011;47337;54.068;12.114;2023-03-23T04:49:02;11.90;;;6.05;;
61471;SDS011;47337;54.068;12.114;2023-03-23T04:51:30;9.50;;;6.30;;
61471;SDS011;47337;54.068;12.114;2023-03-23T04:54:01;11.05;;;6.60;;
61471;SDS011;47337;54.068;12.114;2023-03-23T04:56:26;10.32;;;6.00;;
61471;SDS011;47337;54.068;12.114;2023-03-23T04:58:54;11.85;;;6.00;;
61471;SDS011;47337;54.068;12.114;2023-03-23T05:01:22;11.88;;;6.50;;
61471;SDS011;47337;54.068;12.114;2023-03-23T05:03:52;9.88;;;6.13;;
61471;SDS011;47337;54.068;12.114;2023-03-23T05:06:20;11.48;;;5.85;;
61471;SDS011;47337;54.068;12.114;2023-03-23T05:08:46;11.98;;;6.05;;
61471;SDS011;47337;54.068;12.114;2023-03-23T05:11:13;8.40;;;6.00;;
61471;SDS011;47337;54.068;12.114;2023-03-23T05:13:40;8.45;;;5.85;;
61471;SDS011;47337;54.068;12.114;2023-03-23T05:16:09;8.73;;;5.85;;
61471;SDS011;47337;54.068;12.114;2023-03-23T05:18:34;10.75;;;6.38;;
61471;SDS011;47337;54.068;12.114;2023-03-23T05:21:03;11.13;;;6.72;;
61471;SDS011;47337;54.068;12.114;2023-03-23T05:23:29;10.57;;;6.53;;
61471;SDS011;47337;54.068;12.114;2023-03-23T05:25:56;11.68;;;6.93;;
61471;SDS011;47337;54.068;12.114;2023-03-23T05:28:28;11.02;;;6.10;;
61471;SDS011;47337;54.068;12.114;2023-03-23T05:30:55;7.60;;;5.88;;
61471;SDS011;47337;54.068;12.114;2023-03-23T05:33:21;10.75;;;6.80;;
61471;SDS011;47337;54.068;12.114;2023-03-23T05:35:46;11.48;;;6.68;;
61471;SDS011;47337;54.068;12.114;2023-03-23T05:38:12;12.27;;;7.25;;
61471;SDS011;47337;54.068;12.114;2023-03-23T05:40:39;13.90;;;7.10;;
61471;SDS011;47337;54.068;12.114;2023-03-23T05:43:06;11.10;;;6.43;;
61471;SDS011;47337;54.068;12.114;2023-03-23T05:45:32;12.25;;;7.55;;
61471;SDS011;47337;54.068;12.114;2023-03-23T05:47:58;12.15;;;6.80;;
61471;SDS011;47337;54.068;12.114;2023-03-23T05:50:24;11.48;;;7.28;;
61471;SDS011;47337;54.068;12.114;2023-03-23T05:52:51;12.07;;;7.63;;
61471;SDS011;47337;54.068;12.114;2023-03-23T05:55:16;11.23;;;7.20;;
61471;SDS011;47337;54.068;12.114;2023-03-23T05:57:45;9.25;;;6.57;;
61471;SDS011;47337;54.068;12.114;2023-03-23T06:00:10;12.48;;;6.85;;
61471;SDS011;47337;54.068;12.114;2023-03-23T06:02:45;17.38;;;7.30;;
61471;SDS011;47337;54.068;12.114;2023-03-23T06:05:11;13.35;;;7.32;;
61471;SDS011;47337;54.068;12.114;2023-03-23T06:07:38;11.07;;;7.15;;
61471;SDS011;47337;54.068;12.114;2023-03-23T06:10:07;10.98;;;7.43;;
61471;SDS011;47337;54.068;12.114;2023-03-23T06:12:34;14.30;;;7.72;;
61471;SDS011;47337;54.068;12.114;2023-03-23T06:15:01;11.60;;;7.20;;
61471;SDS011;47337;54.068;12.114;2023-03-23T06:17:29;11.48;;;7.13;;
61471;SDS011;47337;54.068;12.114;2023-03-23T06:19:54;11.65;;;7.63;;
61471;SDS011;47337;54.068;12.114;2023-03-23T06:22:25;11.18;;;7.47;;
61471;SDS011;47337;54.068;12.114;2023-03-23T06:24:51;12.52;;;7.10;;
61471;SDS011;47337;54.068;12.114;2023-03-23T06:27:21;12.50;;;7.57;;
61471;SDS011;47337;54.068;12.114;2023-03-23T06:29:47;11.93;;;8.13;;
61471;SDS011;47337;54.068;12.114;2023-03-23T06:32:13;10.02;;;7.20;;
61471;SDS011;47337;54.068;12.114;2023-03-23T06:34:40;12.48;;;7.40;;
61471;SDS011;47337;54.068;12.114;2023-03-23T06:37:08;12.98;;;7.50;;
61471;SDS011;47337;54.068;12.114;2023-03-23T06:39:34;11.45;;;7.40;;
61471;SDS011;47337;54.068;12.114;2023-03-23T06:42:00;9.85;;;7.40;;
61471;SDS011;47337;54.068;12.114;2023-03-23T06:44:26;12.00;;;7.40;;
61471;SDS011;47337;54.068;12.114;2023-03-23T06:46:57;10.50;;;7.30;;
61471;SDS011;47337;54.068;12.114;2023-03-23T06:49:25;10.85;;;7.25;;
61471;SDS011;47337;54.068;12.114;2023-03-23T06:51:53;11.88;;;7.72;;
61471;SDS011;47337;54.068;12.114;2023-03-23T06:54:18;11.68;;;7.68;;
61471;SDS011;47337;54.068;12.114;2023-03-23T06:56:43;12.52;;;7.68;;
61471;SDS011;47337;54.068;12.114;2023-03-23T06:59:09;12.02;;;7.00;;
61471;SDS011;47337;54.068;12.114;2023-03-23T07:01:35;9.48;;;6.78;;
61471;SDS011;47337;54.068;12.114;2023-03-23T07:04:01;8.43;;;6.93;;
61471;SDS011;47337;54.068;12.114;2023-03-23T07:06:29;9.65;;;6.95;;
61471;SDS011;47337;54.068;12.114;2023-03-23T07:08:57;10.38;;;6.47;;
61471;SDS011;47337;54.068;12.114;2023-03-23T07:11:23;12.35;;;6.63;;
61471;SDS011;47337;54.068;12.114;2023-03-23T07:13:49;10.25;;;6.50;;
61471;SDS011;47337;54.068;12.114;2023-03-23T07:16:18;7.68;;;5.93;;
61471;SDS011;47337;54.068;12.114;2023-03-23T07:18:45;15.18;;;6.43;;
61471;SDS011;47337;54.068;12.114;2023-03-23T07:21:11;8.45;;;6.32;;
61471;SDS011;47337;54.068;12.114;2023-03-23T07:23:36;7.45;;;6.18;;
61471;SDS011;47337;54.068;12.114;2023-03-23T07:26:04;8.52;;;5.93;;
61471;SDS011;47337;54.068;12.114;2023-03-23T07:28:29;7.85;;;5.65;;
61471;SDS011;47337;54.068;12.114;2023-03-23T07:30:55;9.18;;;6.18;;
61471;SDS011;47337;54.068;12.114;2023-03-23T07:33:20;8.52;;;5.88;;
61471;SDS011;47337;54.068;12.114;2023-03-23T07:35:48;6.53;;;5.25;;
61471;SDS011;47337;54.068;12.114;2023-03-23T07:38:14;18.58;;;5.88;;
61471;SDS011;47337;54.068;12.114;2023-03-23T07:40:42;9.70;;;6.20;;
61471;SDS011;47337;54.068;12.114;2023-03-23T07:43:09;7.65;;;5.15;;
61471;SDS011;47337;54.068;12.114;2023-03-23T07:45:34;9.00;;;5.47;;
61471;SDS011;47337;54.068;12.114;2023-03-23T07:48:00;7.65;;;5.80;;
61471;SDS011;47337;54.068;12.114;2023-03-23T07:50:26;6.22;;;4.88;;
61471;SDS011;47337;54.068;12.114;2023-03-23T07:52:54;7.07;;;4.57;;
61471;SDS011;47337;54.068;12.114;2023-03-23T07:55:21;6.30;;;4.20;;
61471;SDS011;47337;54.068;12.114;2023-03-23T07:57:52;7.55;;;4.50;;
61471;SDS011;47337;54.068;12.114;2023-03-23T08:00:18;7.53;;;3.95;;
61471;SDS011;47337;54.068;12.114;2023-03-23T08:02:48;5.95;;;4.28;;
61471;SDS011;47337;54.068;12.114;2023-03-23T08:05:18;5.15;;;3.75;;
61471;SDS011;47337;54.068;12.114;2023-03-23T08:07:45;5.15;;;4.00;;
61471;SDS011;47337;54.068;12.114;2023-03-23T08:10:12;5.97;;;3.55;;
61471;SDS011;47337;54.068;12.114;2023-03-23T08:12:42;6.10;;;3.83;;
61471;SDS011;47337;54.068;12.114;2023-03-23T08:15:09;5.85;;;3.75;;
61471;SDS011;47337;54.068;12.114;2023-03-23T08:20:11;5.70;;;3.42;;
61471;SDS011;47337;54.068;12.114;2023-03-23T08:22:40;5.65;;;3.50;;
61471;SDS011;47337;54.068;12.114;2023-03-23T08:25:06;5.72;;;3.28;;
61471;SDS011;47337;54.068;12.114;2023-03-23T08:27:33;4.45;;;3.20;;
61471;SDS011;47337;54.068;12.114;2023-03-23T08:29:58;3.72;;;2.67;;
61471;SDS011;47337;54.068;12.114;2023-03-23T08:32:24;2.78;;;2.38;;
61471;SDS011;47337;54.068;12.114;2023-03-23T08:34:50;3.47;;;2.42;;
61471;SDS011;47337;54.068;12.114;2023-03-23T08:37:16;5.57;;;2.72;;
61471;SDS011;47337;54.068;12.114;2023-03-23T08:39:41;4.13;;;2.35;;
61471;SDS011;47337;54.068;12.114;2023-03-23T08:42:10;3.35;;;2.30;;
61471;SDS011;47337;54.068;12.114;2023-03-23T08:44:35;7.28;;;2.85;;
61471;SDS011;47337;54.068;12.114;2023-03-23T08:47:03;4.15;;;2.17;;
61471;SDS011;47337;54.068;12.114;2023-03-23T08:49:30;2.67;;;2.00;;
61471;SDS011;47337;54.068;12.114;2023-03-23T08:51:59;6.10;;;2.80;;
61471;SDS011;47337;54.068;12.114;2023-03-23T08:54:27;2.25;;;2.05;;
61471;SDS011;47337;54.068;12.114;2023-03-23T08:56:55;4.55;;;2.30;;
61471;SDS011;47337;54.068;12.114;2023-03-23T08:59:20;6.10;;;2.53;;
61471;SDS011;47337;54.068;12.114;2023-03-23T09:01:48;3.80;;;2.40;;
61471;SDS011;47337;54.068;12.114;2023-03-23T09:04:14;3.50;;;2.33;;
61471;SDS011;47337;54.068;12.114;2023-03-23T09:06:39;5.03;;;2.50;;
61471;SDS011;47337;54.068;12.114;2023-03-23T09:09:05;3.95;;;2.70;;
61471;SDS011;47337;54.068;12.114;2023-03-23T09:11:36;4.32;;;2.60;;
61471;SDS011;47337;54.068;12.114;2023-03-23T09:14:03;4.03;;;2.67;;
61471;SDS011;47337;54.068;12.114;2023-03-23T09:16:32;4.30;;;2.15;;
61471;SDS011;47337;54.068;12.114;2023-03-23T09:19:00;3.13;;;2.30;;
61471;SDS011;47337;54.068;12.114;2023-03-23T09:21:28;4.32;;;2.58;;
61471;SDS011;47337;54.068;12.114;2023-03-23T09:23:54;3.85;;;2.47;;
61471;SDS011;47337;54.068;12.114;2023-03-23T09:26:23;4.30;;;2.30;;
61471;SDS011;47337;54.068;12.114;2023-03-23T09:28:50;3.60;;;2.10;;
61471;SDS011;47337;54.068;12.114;2023-03-23T09:31:16;4.60;;;2.47;;
61471;SDS011;47337;54.068;12.114;2023-03-23T09:33:45;5.75;;;2.10;;
61471;SDS011;47337;54.068;12.114;2023-03-23T09:36:16;3.90;;;2.28;;
61471;SDS011;47337;54.068;12.114;2023-03-23T09:38:46;4.15;;;2.38;;
61471;SDS011;47337;54.068;12.114;2023-03-23T09:44:17;4.57;;;2.28;;
61471;SDS011;47337;54.068;12.114;2023-03-23T09:47:17;3.15;;;2.50;;
61471;SDS011;47337;54.068;12.114;2023-03-23T09:49:53;2.85;;;2.35;;
61471;SDS011;47337;54.068;12.114;2023-03-23T09:52:22;3.03;;;2.20;;
61471;SDS011;47337;54.068;12.114;2023-03-23T09:54:59;3.20;;;2.55;;
61471;SDS011;47337;54.068;12.114;2023-03-23T09:57:34;3.75;;;2.80;;
61471;SDS011;47337;54.068;12.114;2023-03-23T10:00:11;4.30;;;1.95;;
61471;SDS011;47337;54.068;12.114;2023-03-23T10:02:46;3.35;;;1.17;;
61471;SDS011;47337;54.068;12.114;2023-03-23T10:05:24;6.30;;;1.35;;
61471;SDS011;47337;54.068;12.114;2023-03-23T10:07:54;4.45;;;1.10;;
61471;SDS011;47337;54.068;12.114;2023-03-23T10:10:21;3.58;;;0.77;;
61471;SDS011;47337;54.068;12.114;2023-03-23T10:15:56;6.32;;;1.10;;
61471;SDS011;47337;54.068;12.114;2023-03-23T10:18:25;2.28;;;0.85;;
61471;SDS011;47337;54.068;12.114;2023-03-23T10:20:58;3.00;;;1.17;;
61471;SDS011;47337;54.068;12.114;2023-03-23T10:28:57;3.55;;;1.52;;
61471;SDS011;47337;54.068;12.114;2023-03-23T10:31:34;2.38;;;1.10;;
61471;SDS011;47337;54.068;12.114;2023-03-23T10:34:03;3.92;;;1.35;;
61471;SDS011;47337;54.068;12.114;2023-03-23T10:39:47;6.70;;;1.65;;
61471;SDS011;47337;54.068;12.114;2023-03-23T10:42:38;3.60;;;1.25;;
61471;SDS011;47337;54.068;12.114;2023-03-23T10:45:24;3.50;;;0.98;;
61471;SDS011;47337;54.068;12.114;2023-03-23T10:48:14;3.85;;;0.90;;
61471;SDS011;47337;54.068;12.114;2023-03-23T10:50:43;7.97;;;0.80;;
61471;SDS011;47337;54.068;12.114;2023-03-23T10:53:25;4.55;;;0.95;;
61471;SDS011;47337;54.068;12.114;2023-03-23T10:55:53;6.47;;;0.85;;
61471;SDS011;47337;54.068;12.114;2023-03-23T10:58:27;2.67;;;0.80;;
61471;SDS011;47337;54.068;12.114;2023-03-23T11:00:58;3.88;;;1.17;;
61471;SDS011;47337;54.068;12.114;2023-03-23T11:03:43;3.65;;;1.25;;
61471;SDS011;47337;54.068;12.114;2023-03-23T11:06:19;2.72;;;1.00;;
61471;SDS011;47337;54.068;12.114;2023-03-23T11:09:13;3.33;;;0.75;;
61471;SDS011;47337;54.068;12.114;2023-03-23T11:11:42;3.95;;;1.02;;
61471;SDS011;47337;54.068;12.114;2023-03-23T11:14:17;5.47;;;1.65;;
61471;SDS011;47337;54.068;12.114;2023-03-23T11:16:49;3.05;;;1.00;;
61471;SDS011;47337;54.068;12.114;2023-03-23T11:19:26;3.38;;;1.02;;
61471;SDS011;47337;54.068;12.114;2023-03-23T11:24:32;3.13;;;1.20;;
61471;SDS011;47337;54.068;12.114;2023-03-23T11:26:59;3.83;;;1.40;;
61471;SDS011;47337;54.068;12.114;2023-03-23T11:29:28;4.32;;;1.40;;
61471;SDS011;47337;54.068;12.114;2023-03-23T11:36:53;4.40;;;1.75;;
61471;SDS011;47337;54.068;12.114;2023-03-23T11:39:30;5.32;;;1.52;;
61471;SDS011;47337;54.068;12.114;2023-03-23T11:42:00;2.92;;;1.70;;
61471;SDS011;47337;54.068;12.114;2023-03-23T11:44:40;2.38;;;1.48;;
61471;SDS011;47337;54.068;12.114;2023-03-23T11:47:15;3.47;;;1.65;;
61471;SDS011;47337;54.068;12.114;2023-03-23T11:52:42;4.25;;;1.80;;
61471;SDS011;47337;54.068;12.114;2023-03-23T11:55:25;3.92;;;1.60;;
61471;SDS011;47337;54.068;12.114;2023-03-23T11:57:55;4.22;;;1.60;;
61471;SDS011;47337;54.068;12.114;2023-03-23T12:00:25;2.92;;;1.98;;
61471;SDS011;47337;54.068;12.114;2023-03-23T12:06:12;5.63;;;1.77;;
61471;SDS011;47337;54.068;12.114;2023-03-23T12:11:40;3.20;;;1.58;;
61471;SDS011;47337;54.068;12.114;2023-03-23T12:17:05;5.75;;;2.35;;
61471;SDS011;47337;54.068;12.114;2023-03-23T12:19:45;5.13;;;1.98;;
61471;SDS011;47337;54.068;12.114;2023-03-23T12:34:20;4.53;;;1.90;;
61471;SDS011;47337;54.068;12.114;2023-03-23T12:50:12;5.63;;;1.50;;
61471;SDS011;47337;54.068;12.114;2023-03-23T12:58:31;6.00;;;1.67;;
61471;SDS011;47337;54.068;12.114;2023-03-23T13:03:49;3.92;;;1.70;;
61471;SDS011;47337;54.068;12.114;2023-03-23T13:09:20;5.57;;;1.98;;
61471;SDS011;47337;54.068;12.114;2023-03-23T13:11:47;7.85;;;1.80;;
61471;SDS011;47337;54.068;12.114;2023-03-23T13:16:58;6.70;;;1.80;;
61471;SDS011;47337;54.068;12.114;2023-03-23T13:28:01;5.07;;;1.20;;
61471;SDS011;47337;54.068;12.114;2023-03-23T13:30:28;8.35;;;1.75;;
61471;SDS011;47337;54.068;12.114;2023-03-23T13:33:03;5.63;;;1.60;;
61471;SDS011;47337;54.068;12.114;2023-03-23T13:35:35;5.15;;;1.55;;
61471;SDS011;47337;54.068;12.114;2023-03-23T13:38:10;6.65;;;1.60;;
61471;SDS011;47337;54.068;12.114;2023-03-23T13:40:43;7.15;;;1.20;;
61471;SDS011;47337;54.068;12.114;2023-03-23T13:43:10;6.90;;;1.67;;
61471;SDS011;47337;54.068;12.114;2023-03-23T13:45:43;12.82;;;1.67;;
61471;SDS011;47337;54.068;12.114;2023-03-23T13:51:21;9.27;;;1.83;;
61471;SDS011;47337;54.068;12.114;2023-03-23T13:53:49;10.02;;;2.10;;
61471;SDS011;47337;54.068;12.114;2023-03-23T13:56:22;5.65;;;1.73;;
61471;SDS011;47337;54.068;12.114;2023-03-23T14:01:38;5.35;;;1.70;;
61471;SDS011;47337;54.068;12.114;2023-03-23T14:04:07;8.15;;;1.90;;
61471;SDS011;47337;54.068;12.114;2023-03-23T14:06:41;11.10;;;1.90;;
61471;SDS011;47337;54.068;12.114;2023-03-23T14:11:50;5.72;;;1.65;;
61471;SDS011;47337;54.068;12.114;2023-03-23T14:14:31;7.88;;;1.73;;
61471;SDS011;47337;54.068;12.114;2023-03-23T14:17:22;4.80;;;1.77;;
61471;SDS011;47337;54.068;12.114;2023-03-23T14:19:54;9.02;;;2.08;;
61471;SDS011;47337;54.068;12.114;2023-03-23T14:25:00;5.85;;;1.80;;
61471;SDS011;47337;54.068;12.114;2023-03-23T14:27:26;5.15;;;1.70;;
61471;SDS011;47337;54.068;12.114;2023-03-23T14:30:01;6.35;;;2.10;;
61471;SDS011;47337;54.068;12.114;2023-03-23T14:32:37;4.90;;;2.03;;
61471;SDS011;47337;54.068;12.114;2023-03-23T14:35:07;8.75;;;1.98;;
61471;SDS011;47337;54.068;12.114;2023-03-23T14:37:38;8.02;;;2.03;;
61471;SDS011;47337;54.068;12.114;2023-03-23T14:40:03;7.22;;;1.75;;
61471;SDS011;47337;54.068;12.114;2023-03-23T14:42:32;5.30;;;1.60;;
61471;SDS011;47337;54.068;12.114;2023-03-23T14:45:02;10.57;;;2.10;;
61471;SDS011;47337;54.068;12.114;2023-03-23T14:47:35;11.88;;;1.95;;
61471;SDS011;47337;54.068;12.114;2023-03-23T14:50:06;8.00;;;2.00;;
61471;SDS011;47337;54.068;12.114;2023-03-23T14:52:47;5.32;;;2.05;;
61471;SDS011;47337;54.068;12.114;2023-03-23T14:57:42;9.57;;;2.00;;
61471;SDS011;47337;54.068;12.114;2023-03-23T15:00:14;6.32;;;1.73;;
61471;SDS011;47337;54.068;12.114;2023-03-23T15:02:41;8.27;;;2.35;;
61471;SDS011;47337;54.068;12.114;2023-03-23T15:05:13;12.13;;;2.35;;
61471;SDS011;47337;54.068;12.114;2023-03-23T15:07:43;6.85;;;1.80;;
61471;SDS011;47337;54.068;12.114;2023-03-23T15:10:15;8.30;;;2.65;;
61471;SDS011;47337;54.068;12.114;2023-03-23T15:12:45;6.90;;;2.85;;
61471;SDS011;47337;54.068;12.114;2023-03-23T15:15:21;8.30;;;2.47;;
61471;SDS011;47337;54.068;12.114;2023-03-23T15:17:50;6.35;;;1.80;;
61471;SDS011;47337;54.068;12.114;2023-03-23T15:22:52;5.20;;;1.88;;
61471;SDS011;47337;54.068;12.114;2023-03-23T15:27:53;6.15;;;1.90;;
61471;SDS011;47337;54.068;12.114;2023-03-23T15:32:53;12.70;;;2.33;;
61471;SDS011;47337;54.068;12.114;2023-03-23T15:35:24;5.05;;;1.83;;
61471;SDS011;47337;54.068;12.114;2023-03-23T15:40:32;8.15;;;2.95;;
61471;SDS011;47337;54.068;12.114;2023-03-23T15:43:48;4.40;;;1.77;;
61471;SDS011;47337;54.068;12.114;2023-03-23T15:51:28;4.97;;;1.65;;
61471;SDS011;47337;54.068;12.114;2023-03-23T15:53:55;7.03;;;2.40;;
61471;SDS011;47337;54.068;12.114;2023-03-23T15:56:26;5.85;;;1.92;;
61471;SDS011;47337;54.068;12.114;2023-03-23T15:58:52;9.23;;;2.15;;
61471;SDS011;47337;54.068;12.114;2023-03-23T16:01:25;4.32;;;2.10;;
61471;SDS011;47337;54.068;12.114;2023-03-23T16:03:54;5.60;;;2.40;;
61471;SDS011;47337;54.068;12.114;2023-03-23T16:06:23;7.72;;;2.20;;
61471;SDS011;47337;54.068;12.114;2023-03-23T16:08:51;6.10;;;2.63;;
61471;SDS011;47337;54.068;12.114;2023-03-23T16:11:19;7.30;;;2.00;;
61471;SDS011;47337;54.068;12.114;2023-03-23T16:13:47;9.25;;;2.88;;
61471;SDS011;47337;54.068;12.114;2023-03-23T16:16:18;6.93;;;2.00;;
61471;SDS011;47337;54.068;12.114;2023-03-23T16:18:44;4.78;;;1.30;;
61471;SDS011;47337;54.068;12.114;2023-03-23T16:21:10;4.75;;;1.50;;
61471;SDS011;47337;54.068;12.114;2023-03-23T16:23:35;5.93;;;1.85;;
61471;SDS011;47337;54.068;12.114;2023-03-23T16:26:01;5.65;;;1.70;;
61471;SDS011;47337;54.068;12.114;2023-03-23T16:28:29;2.80;;;1.35;;
61471;SDS011;47337;54.068;12.114;2023-03-23T16:30:55;2.97;;;1.20;;
61471;SDS011;47337;54.068;12.114;2023-03-23T16:33:20;5.47;;;1.98;;
61471;SDS011;47337;54.068;12.114;2023-03-23T16:35:48;3.08;;;1.10;;
61471;SDS011;47337;54.068;12.114;2023-03-23T16:38:16;7.70;;;1.35;;
61471;SDS011;47337;54.068;12.114;2023-03-23T16:40:42;5.20;;;1.17;;
61471;SDS011;47337;54.068;12.114;2023-03-23T16:43:09;4.63;;;1.67;;
61471;SDS011;47337;54.068;12.114;2023-03-23T16:45:36;3.95;;;1.55;;
61471;SDS011;47337;54.068;12.114;2023-03-23T16:48:03;4.07;;;1.20;;
61471;SDS011;47337;54.068;12.114;2023-03-23T16:50:29;3.25;;;1.83;;
61471;SDS011;47337;54.068;12.114;2023-03-23T16:52:59;3.88;;;1.65;;
61471;SDS011;47337;54.068;12.114;2023-03-23T16:55:27;6.07;;;1.88;;
61471;SDS011;47337;54.068;12.114;2023-03-23T16:57:55;3.45;;;1.58;;
61471;SDS011;47337;54.068;12.114;2023-03-23T17:00:21;3.92;;;1.27;;
61471;SDS011;47337;54.068;12.114;2023-03-23T17:02:51;5.07;;;1.17;;
61471;SDS011;47337;54.068;12.114;2023-03-23T17:05:20;4.35;;;1.50;;
61471;SDS011;47337;54.068;12.114;2023-03-23T17:07:46;4.18;;;1.08;;
61471;SDS011;47337;54.068;12.114;2023-03-23T17:10:15;3.70;;;1.10;;
61471;SDS011;47337;54.068;12.114;2023-03-23T17:12:41;4.38;;;1.23;;